createdAt,value
2022-12-08T00:01:39.545Z,80.66
2022-12-08T00:04:07.634Z,80.49
2022-12-08T00:06:40.728Z,80.51
2022-12-08T00:09:36.400Z,80.40
2022-12-08T00:12:11.034Z,80.58
2022-12-08T00:14:43.928Z,80.70
2022-12-08T00:17:13.415Z,80.66
2022-12-08T00:19:42.348Z,80.65
2022-12-08T00:22:11.964Z,80.69
2022-12-08T00:24:40.966Z,80.58
2022-12-08T00:27:11.110Z,80.65
2022-12-08T00:29:38.761Z,80.50
2022-12-08T00:32:06.647Z,80.69
2022-12-08T00:34:34.531Z,80.65
2022-12-08T00:37:02.241Z,80.26
2022-12-08T00:39:29.873Z,80.27
2022-12-08T00:41:57.447Z,80.27
2022-12-08T00:44:25.137Z,80.35
2022-12-08T00:46:52.814Z,80.27
2022-12-08T00:49:21.225Z,80.31
2022-12-08T00:51:49.197Z,80.38
2022-12-08T00:54:17.604Z,80.24
2022-12-08T00:56:45.382Z,80.23
2022-12-08T00:59:13.080Z,80.13
2022-12-08T01:01:41.214Z,80.24
2022-12-08T01:04:12.734Z,80.42
2022-12-08T01:06:40.336Z,80.15
2022-12-08T01:09:08.904Z,79.98
2022-12-08T01:11:36.791Z,79.93
2022-12-08T01:14:04.530Z,79.78
2022-12-08T01:16:35.238Z,79.69
2022-12-08T01:19:03.664Z,79.66
2022-12-08T01:21:31.275Z,79.50
2022-12-08T01:24:01.890Z,79.32
2022-12-08T01:26:29.503Z,79.29
2022-12-08T01:28:57.075Z,79.02
2022-12-08T01:31:24.713Z,79.18
2022-12-08T01:33:52.749Z,79.27
2022-12-08T01:36:25.964Z,79.14
2022-12-08T01:38:54.843Z,79.05
2022-12-08T01:41:25.174Z,79.23
2022-12-08T01:44:04.081Z,79.34
2022-12-08T01:46:34.039Z,79.51
2022-12-08T01:49:11.506Z,79.49
2022-12-08T01:51:46.860Z,79.57
2022-12-08T01:54:15.487Z,79.39
2022-12-08T01:56:52.582Z,79.31
2022-12-08T01:59:20.291Z,79.28
2022-12-08T02:01:48.036Z,79.28
2022-12-08T02:04:15.715Z,79.14
2022-12-08T02:06:46.702Z,78.95
2022-12-08T02:09:14.570Z,79.14
2022-12-08T02:11:42.146Z,79.28
2022-12-08T02:14:13.633Z,79.28
2022-12-08T02:16:50.451Z,79.40
2022-12-08T02:19:49.475Z,79.20
2022-12-08T02:22:26.366Z,79.09
2022-12-08T02:25:02.093Z,79.00
2022-12-08T02:27:48.297Z,78.92
2022-12-08T02:30:19.835Z,78.94
2022-12-08T02:33:18.429Z,78.85
2022-12-08T02:36:00.301Z,78.82
2022-12-08T02:39:00.086Z,79.21
2022-12-08T02:41:37.333Z,79.38
2022-12-08T02:44:20.044Z,79.34
2022-12-08T02:46:54.065Z,79.54
2022-12-08T02:49:21.721Z,79.73
2022-12-08T02:51:49.404Z,79.61
2022-12-08T02:54:17.225Z,79.85
2022-12-08T02:57:30.145Z,79.75
2022-12-08T03:00:08.883Z,79.86
2022-12-08T03:02:56.384Z,79.95
2022-12-08T03:05:45.449Z,79.81
2022-12-08T03:08:13.171Z,79.75
2022-12-08T03:10:43.051Z,79.87
2022-12-08T03:13:20.651Z,79.88
2022-12-08T03:15:51.110Z,80.10
2022-12-08T03:18:24.070Z,80.20
2022-12-08T03:20:52.123Z,80.31
2022-12-08T03:23:21.215Z,80.28
2022-12-08T03:25:56.894Z,80.40
2022-12-08T03:28:25.273Z,79.89
2022-12-08T03:30:57.118Z,80.14
2022-12-08T03:33:30.472Z,80.24
2022-12-08T03:36:01.666Z,80.32
2022-12-08T03:38:40.481Z,80.50
2022-12-08T03:41:08.115Z,80.49
2022-12-08T03:43:36.060Z,80.48
2022-12-08T03:46:03.733Z,80.50
2022-12-08T03:48:31.368Z,80.52
2022-12-08T03:50:58.920Z,80.48
2022-12-08T03:53:26.523Z,80.29
2022-12-08T03:55:54.553Z,80.36
2022-12-08T03:58:22.162Z,80.15
2022-12-08T04:00:49.789Z,80.23
2022-12-08T04:03:17.447Z,80.36
2022-12-08T04:05:45.114Z,80.32
2022-12-08T04:08:12.740Z,80.19
2022-12-08T04:10:40.340Z,80.21
2022-12-08T04:13:07.933Z,80.38
2022-12-08T04:15:35.550Z,80.25
2022-12-08T04:18:03.334Z,80.13
2022-12-08T04:20:30.904Z,80.11
2022-12-08T04:22:58.473Z,79.99
2022-12-08T04:25:26.184Z,80.05
2022-12-08T04:27:53.748Z,79.87
2022-12-08T04:30:23.184Z,80.03
2022-12-08T04:32:50.773Z,80.12
2022-12-08T04:35:18.475Z,80.11
2022-12-08T04:37:46.083Z,79.92
2022-12-08T04:40:14.535Z,79.87
2022-12-08T04:42:42.178Z,80.01
2022-12-08T04:45:10.200Z,80.07
2022-12-08T04:47:37.868Z,80.06
2022-12-08T04:50:06.608Z,79.93
2022-12-08T04:52:34.477Z,80.09
2022-12-08T04:55:02.670Z,80.14
2022-12-08T04:57:30.359Z,79.97
2022-12-08T04:59:58.034Z,80.03
2022-12-08T05:02:26.044Z,80.10
2022-12-08T05:04:53.726Z,79.91
2022-12-08T05:07:21.393Z,79.82
2022-12-08T05:09:49.005Z,79.66
2022-12-08T05:12:16.763Z,79.76
2022-12-08T05:14:44.414Z,79.72
2022-12-08T05:17:11.993Z,79.56
2022-12-08T05:19:39.900Z,79.60
2022-12-08T05:22:07.506Z,79.52
2022-12-08T05:24:35.127Z,79.45
2022-12-08T05:27:03.056Z,79.57
2022-12-08T05:29:30.662Z,79.45
2022-12-08T05:31:58.385Z,79.35
2022-12-08T05:34:26.163Z,79.27
2022-12-08T05:36:53.887Z,79.29
2022-12-08T05:39:21.463Z,79.26
2022-12-08T05:41:49.039Z,79.37
2022-12-08T05:44:16.661Z,79.32
2022-12-08T05:46:44.333Z,79.35
2022-12-08T05:49:11.925Z,79.39
2022-12-08T05:51:39.673Z,79.20
2022-12-08T05:54:07.270Z,79.12
2022-12-08T05:56:34.944Z,79.12
2022-12-08T05:59:06.069Z,78.98
2022-12-08T06:01:34.103Z,79.08
2022-12-08T06:04:03.234Z,79.13
2022-12-08T06:06:36.236Z,79.12
2022-12-08T06:09:05.477Z,79.05
2022-12-08T06:11:33.582Z,79.03
2022-12-08T06:14:01.812Z,79.06
2022-12-08T06:16:30.243Z,79.03
2022-12-08T06:18:58.418Z,79.14
2022-12-08T06:21:26.161Z,79.19
2022-12-08T06:23:54.600Z,79.37
2022-12-08T06:26:23.151Z,79.39
2022-12-08T06:28:51.084Z,79.29
2022-12-08T06:31:24.586Z,79.40
2022-12-08T06:33:53.686Z,79.42
2022-12-08T06:36:24.274Z,79.48
2022-12-08T06:38:51.993Z,79.33
2022-12-08T06:41:19.654Z,79.28
2022-12-08T06:43:47.420Z,79.43
2022-12-08T06:46:17.958Z,79.38
2022-12-08T06:48:45.935Z,79.34
2022-12-08T06:51:19.768Z,79.42
2022-12-08T06:53:50.506Z,79.44
2022-12-08T06:56:18.215Z,79.52
2022-12-08T06:58:50.557Z,79.59
2022-12-08T07:01:20.081Z,79.63
2022-12-08T07:03:48.032Z,79.70
2022-12-08T07:06:19.277Z,79.76
2022-12-08T07:08:47.131Z,79.64
2022-12-08T07:11:20.986Z,79.70
2022-12-08T07:13:49.870Z,79.83
2022-12-08T07:16:17.563Z,79.87
2022-12-08T07:18:45.183Z,80.02
2022-12-08T07:21:14.068Z,79.83
2022-12-08T07:23:42.358Z,79.56
2022-12-08T07:26:12.329Z,79.68
2022-12-08T07:28:41.503Z,79.66
2022-12-08T07:31:21.535Z,79.64
2022-12-08T07:33:49.827Z,79.64
2022-12-08T07:36:17.600Z,79.39
2022-12-08T07:38:45.496Z,79.57
2022-12-08T07:41:17.878Z,79.49
2022-12-08T07:43:45.632Z,79.44
2022-12-08T07:46:19.307Z,79.63
2022-12-08T07:48:47.798Z,79.44
2022-12-08T07:51:16.547Z,79.39
2022-12-08T07:53:51.565Z,79.43
2022-12-08T07:56:21.926Z,79.30
2022-12-08T07:58:50.010Z,79.30
2022-12-08T08:01:29.524Z,79.12
2022-12-08T08:03:59.307Z,79.00
2022-12-08T08:06:27.465Z,79.04
2022-12-08T08:08:55.184Z,78.87
2022-12-08T08:11:23.903Z,78.64
2022-12-08T08:13:51.893Z,78.10
2022-12-08T08:16:20.413Z,77.52
2022-12-08T08:18:50.124Z,77.54
2022-12-08T08:24:07.344Z,76.63
2022-12-08T08:26:36.670Z,76.21
2022-12-08T08:29:04.291Z,75.87
2022-12-08T08:31:31.890Z,75.43
2022-12-08T08:33:59.528Z,74.72
2022-12-08T08:36:27.100Z,74.39
2022-12-08T08:38:54.765Z,73.74
2022-12-08T08:41:22.349Z,73.54
2022-12-08T08:43:49.908Z,73.33
2022-12-08T08:46:17.534Z,73.12
2022-12-08T08:48:45.310Z,72.77
2022-12-08T08:51:14.258Z,72.48
2022-12-08T08:53:42.526Z,72.02
2022-12-08T08:56:19.108Z,71.56
2022-12-08T08:58:50.724Z,71.49
2022-12-08T09:01:19.352Z,70.75
2022-12-08T09:03:48.010Z,70.46
2022-12-08T09:06:16.739Z,70.26
2022-12-08T09:08:45.284Z,70.51
2022-12-08T09:11:13.499Z,70.26
2022-12-08T09:13:41.609Z,69.93
2022-12-08T09:16:11.455Z,69.71
2022-12-08T09:18:39.110Z,69.28
2022-12-08T09:21:13.714Z,69.64
2022-12-08T09:23:41.298Z,69.81
2022-12-08T09:26:09.475Z,69.98
2022-12-08T09:28:37.604Z,69.84
2022-12-08T09:31:05.415Z,69.88
2022-12-08T09:33:33.022Z,69.92
2022-12-08T09:36:04.696Z,70.17
2022-12-08T09:38:32.619Z,70.48
2022-12-08T09:41:02.835Z,70.47
2022-12-08T09:43:48.692Z,70.58
2022-12-08T09:46:17.001Z,70.23
2022-12-08T09:48:51.309Z,70.43
2022-12-08T09:51:19.068Z,70.62
2022-12-08T09:53:52.572Z,70.71
2022-12-08T09:56:26.751Z,71.12
2022-12-08T09:59:03.628Z,71.18
2022-12-08T10:01:33.575Z,71.14
2022-12-08T10:04:01.953Z,70.99
2022-12-08T10:07:11.237Z,70.55
2022-12-08T10:09:45.655Z,70.00
2022-12-08T10:12:26.118Z,69.77
2022-12-08T10:14:56.769Z,69.66
2022-12-08T10:17:48.097Z,69.56
2022-12-08T10:20:19.718Z,69.13
2022-12-08T10:22:57.577Z,68.39
2022-12-08T10:25:46.916Z,68.41
2022-12-08T10:28:15.262Z,68.99
2022-12-08T10:30:43.262Z,68.98
2022-12-08T10:33:21.762Z,69.28
2022-12-08T10:35:54.556Z,69.36
2022-12-08T10:38:26.881Z,69.13
2022-12-08T10:41:03.652Z,68.88
2022-12-08T10:43:32.824Z,68.70
2022-12-08T10:46:21.782Z,69.00
2022-12-08T10:49:10.820Z,68.63
2022-12-08T10:51:41.212Z,68.30
2022-12-08T10:54:35.775Z,68.04
2022-12-08T10:57:03.558Z,68.00
2022-12-08T10:59:33.959Z,68.13
2022-12-08T11:02:01.705Z,67.97
2022-12-08T11:04:36.353Z,67.92
2022-12-08T11:07:06.660Z,67.90
2022-12-08T11:09:47.315Z,68.17
2022-12-08T11:12:16.140Z,67.94
2022-12-08T11:14:43.664Z,67.38
2022-12-08T11:17:23.581Z,67.19
2022-12-08T11:20:09.734Z,67.28
2022-12-08T11:22:43.157Z,67.33
2022-12-08T11:25:25.483Z,67.27
2022-12-08T11:28:02.352Z,67.21
2022-12-08T11:30:44.711Z,67.30
2022-12-08T11:33:16.153Z,67.60
2022-12-08T11:36:13.378Z,67.83
2022-12-08T11:38:44.348Z,68.05
2022-12-08T11:41:17.067Z,68.17
2022-12-08T11:43:58.481Z,67.93
2022-12-08T11:46:34.836Z,68.41
2022-12-08T11:49:09.342Z,68.34
2022-12-08T11:51:45.892Z,68.32
2022-12-08T11:54:26.191Z,67.95
2022-12-08T11:56:59.454Z,68.12
2022-12-08T11:59:57.230Z,67.96
2022-12-08T12:02:31.140Z,67.93
2022-12-08T12:05:08.264Z,67.95
2022-12-08T12:08:02.540Z,67.60
2022-12-08T12:10:30.223Z,67.84
2022-12-08T12:13:35.980Z,67.46
2022-12-08T12:16:25.486Z,67.46
2022-12-08T12:19:10.016Z,67.63
2022-12-08T12:21:52.629Z,67.81
2022-12-08T12:24:30.483Z,67.77
2022-12-08T12:27:07.126Z,67.95
2022-12-08T12:29:38.238Z,68.02
2022-12-08T12:32:09.039Z,67.84
2022-12-08T12:34:46.871Z,68.00
2022-12-08T12:37:18.572Z,67.89
2022-12-08T12:39:52.153Z,67.97
2022-12-08T12:43:01.567Z,68.00
2022-12-08T12:45:33.140Z,68.12
2022-12-08T12:48:00.935Z,68.12
2022-12-08T12:50:34.779Z,68.10
2022-12-08T12:53:17.568Z,68.26
2022-12-08T12:55:56.944Z,68.41
2022-12-08T12:58:27.542Z,68.62
2022-12-08T13:01:10.301Z,68.42
2022-12-08T13:03:50.466Z,67.79
2022-12-08T13:06:35.614Z,67.65
2022-12-08T13:09:04.221Z,67.73
2022-12-08T13:11:48.076Z,67.79
2022-12-08T13:14:34.626Z,67.64
2022-12-08T13:17:07.790Z,67.62
2022-12-08T13:19:38.736Z,67.96
2022-12-08T13:22:43.975Z,68.32
2022-12-08T13:25:39.357Z,68.48
2022-12-08T13:28:16.110Z,68.48
2022-12-08T13:30:53.620Z,68.37
2022-12-08T13:33:50.905Z,68.32
2022-12-08T13:36:28.878Z,68.21
2022-12-08T13:38:58.083Z,68.24
2022-12-08T13:41:40.094Z,68.20
2022-12-08T13:45:11.305Z,68.19
2022-12-08T13:56:59.645Z,68.59
2022-12-08T13:58:40.374Z,68.44
2022-12-08T14:01:21.709Z,68.68
2022-12-08T14:06:50.333Z,68.75
2022-12-08T14:09:22.355Z,68.79
2022-12-08T14:12:03.024Z,68.79
2022-12-08T14:15:02.008Z,68.54
2022-12-08T14:17:27.289Z,68.38
2022-12-08T14:19:57.094Z,68.51
2022-12-08T14:22:24.727Z,68.38
2022-12-08T14:24:54.187Z,68.42
2022-12-08T14:27:24.389Z,68.57
2022-12-08T14:29:55.496Z,68.78
2022-12-08T14:32:40.004Z,68.78
2022-12-08T14:35:07.806Z,68.58
2022-12-08T14:37:41.144Z,68.53
2022-12-08T14:40:12.045Z,68.53
2022-12-08T14:42:46.360Z,68.65
2022-12-08T14:45:17.051Z,68.72
2022-12-08T14:47:44.834Z,68.69
2022-12-08T14:50:41.714Z,68.78
2022-12-08T14:53:15.614Z,68.76
2022-12-08T14:55:46.003Z,68.93
2022-12-08T14:58:19.996Z,68.91
2022-12-08T15:00:52.061Z,68.99
2022-12-08T15:03:22.029Z,69.25
2022-12-08T15:06:00.391Z,69.30
2022-12-08T15:08:28.173Z,69.49
2022-12-08T15:11:23.483Z,69.51
2022-12-08T15:13:52.474Z,69.63
2022-12-08T15:16:43.785Z,69.71
2022-12-08T15:19:23.310Z,69.81
2022-12-08T15:21:51.237Z,69.96
2022-12-08T15:24:21.545Z,69.96
2022-12-08T15:26:50.393Z,70.01
2022-12-08T15:29:26.680Z,70.27
2022-12-08T15:31:59.930Z,70.17
2022-12-08T15:34:27.745Z,70.23
2022-12-08T15:36:55.429Z,70.31
2022-12-08T15:39:33.502Z,70.60
2022-12-08T15:42:02.468Z,71.01
2022-12-08T15:44:30.075Z,71.04
2022-12-08T15:46:58.626Z,71.02
2022-12-08T15:49:26.440Z,71.04
2022-12-08T15:52:02.017Z,71.21
2022-12-08T15:54:35.720Z,70.95
2022-12-08T15:57:19.261Z,71.15
2022-12-08T15:59:51.028Z,71.37
2022-12-08T16:02:22.518Z,71.29
2022-12-08T16:07:38.666Z,71.53
2022-12-08T16:10:08.544Z,71.61
2022-12-08T16:13:13.908Z,71.59
2022-12-08T16:18:21.855Z,72.10
2022-12-08T16:23:45.465Z,72.25
2022-12-08T16:29:18.543Z,73.65
2022-12-08T16:31:47.041Z,73.73
2022-12-08T16:34:14.969Z,74.14
2022-12-08T16:36:42.556Z,74.25
2022-12-08T16:39:13.152Z,74.26
2022-12-08T16:41:40.817Z,74.24
2022-12-08T16:44:08.445Z,74.18
2022-12-08T16:46:36.081Z,74.31
2022-12-08T16:49:07.590Z,74.55
2022-12-08T16:51:35.241Z,74.46
2022-12-08T16:54:02.885Z,74.47
2022-12-08T16:56:33.039Z,74.68
2022-12-08T16:59:01.949Z,74.60
2022-12-08T17:01:29.847Z,74.79
2022-12-08T17:06:45.483Z,74.93
2022-12-08T17:09:13.140Z,74.94
2022-12-08T17:11:43.251Z,74.83
2022-12-08T17:14:16.384Z,74.83
2022-12-08T17:16:45.593Z,74.73
2022-12-08T17:19:14.357Z,74.95
2022-12-08T17:21:42.665Z,75.00
2022-12-08T17:24:10.596Z,74.97
2022-12-08T17:26:38.524Z,74.84
2022-12-08T17:29:06.175Z,74.61
2022-12-08T17:31:34.003Z,74.67
2022-12-08T17:34:03.216Z,74.85
2022-12-08T17:36:31.567Z,74.96
2022-12-08T17:39:00.119Z,74.97
2022-12-08T17:41:28.701Z,75.13
2022-12-08T17:43:56.793Z,75.16
2022-12-08T17:46:24.567Z,75.04
2022-12-08T17:48:52.246Z,74.89
2022-12-08T17:51:19.863Z,74.83
2022-12-08T17:53:47.498Z,74.75
2022-12-08T17:56:19.038Z,74.98
2022-12-08T17:58:52.890Z,74.62
2022-12-08T18:01:23.888Z,74.61
2022-12-08T18:03:51.740Z,74.51
2022-12-08T18:06:20.000Z,74.34
2022-12-08T18:08:47.766Z,74.54
2022-12-08T18:11:19.848Z,74.56
2022-12-08T18:13:49.491Z,74.45
2022-12-08T18:16:18.738Z,74.25
2022-12-08T18:18:47.116Z,74.32
2022-12-08T18:21:22.797Z,74.24
2022-12-08T18:23:51.505Z,74.29
2022-12-08T18:26:19.972Z,74.32
2022-12-08T18:28:47.764Z,74.33
2022-12-08T18:31:19.079Z,74.36
2022-12-08T18:33:47.858Z,74.25
2022-12-08T18:36:25.309Z,74.10
2022-12-08T18:38:53.357Z,73.70
2022-12-08T18:41:23.539Z,73.34
2022-12-08T18:43:51.840Z,73.34
2022-12-08T18:46:19.802Z,73.28
2022-12-08T18:48:49.569Z,73.23
2022-12-08T18:51:22.693Z,73.29
2022-12-08T18:53:51.428Z,73.32
2022-12-08T18:56:28.298Z,73.54
2022-12-08T18:59:02.849Z,73.74
2022-12-08T19:01:32.976Z,73.88
2022-12-08T19:06:51.273Z,73.71
2022-12-08T19:09:19.316Z,73.68
2022-12-08T19:11:46.943Z,73.67
2022-12-08T19:14:14.532Z,73.80
2022-12-08T19:16:42.228Z,73.74
2022-12-08T19:19:09.822Z,73.95
2022-12-08T19:21:41.395Z,73.87
2022-12-08T19:24:12.628Z,74.01
2022-12-08T19:26:40.425Z,74.17
2022-12-08T19:29:08.278Z,74.28
2022-12-08T19:31:36.047Z,74.47
2022-12-08T19:34:03.698Z,74.33
2022-12-08T19:36:31.335Z,74.49
2022-12-08T19:38:58.891Z,74.48
2022-12-08T19:41:26.939Z,74.54
2022-12-08T19:43:54.517Z,74.55
2022-12-08T19:46:22.212Z,74.31
2022-12-08T19:48:49.899Z,74.32
2022-12-08T19:51:17.490Z,74.16
2022-12-08T19:53:47.747Z,74.22
2022-12-08T19:56:15.720Z,74.48
2022-12-08T19:58:43.406Z,74.54
2022-12-08T20:01:11.091Z,74.73
2022-12-08T20:03:38.905Z,74.73
2022-12-08T20:06:06.539Z,74.91
2022-12-08T20:08:34.213Z,74.93
2022-12-08T20:11:01.859Z,75.01
2022-12-08T20:13:29.446Z,75.05
2022-12-08T20:15:57.587Z,75.01
2022-12-08T20:18:25.264Z,74.82
2022-12-08T20:20:52.872Z,74.90
2022-12-08T20:23:21.654Z,74.94
2022-12-08T20:25:49.286Z,74.79
2022-12-08T20:28:16.998Z,75.09
2022-12-08T20:30:45.729Z,75.28
2022-12-08T20:33:14.013Z,75.20
2022-12-08T20:35:42.392Z,75.12
2022-12-08T20:38:11.073Z,75.07
2022-12-08T20:40:44.356Z,74.97
2022-12-08T20:43:12.015Z,74.94
2022-12-08T20:45:39.604Z,74.89
2022-12-08T20:48:07.346Z,75.06
2022-12-08T20:50:35.028Z,75.14
2022-12-08T20:53:02.805Z,75.27
2022-12-08T20:55:30.611Z,75.20
2022-12-08T20:57:58.245Z,75.15
2022-12-08T21:00:26.016Z,75.22
2022-12-08T21:02:56.828Z,75.38
2022-12-08T21:05:25.055Z,75.17
2022-12-08T21:07:53.119Z,75.35
2022-12-08T21:10:20.775Z,75.30
2022-12-08T21:12:48.544Z,75.31
2022-12-08T21:15:16.428Z,75.49
2022-12-08T21:17:44.142Z,75.56
2022-12-08T21:20:12.158Z,75.62
2022-12-08T21:22:40.243Z,75.56
2022-12-08T21:25:08.867Z,75.65
2022-12-08T21:27:37.803Z,75.82
2022-12-08T21:30:07.999Z,75.87
2022-12-08T21:32:37.934Z,75.86
2022-12-08T21:35:07.066Z,75.94
2022-12-08T21:37:35.223Z,75.86
2022-12-08T21:40:03.200Z,75.73
2022-12-08T21:42:34.312Z,75.72
2022-12-08T21:45:02.466Z,75.70
2022-12-08T21:47:30.239Z,75.77
2022-12-08T21:49:58.119Z,76.01
2022-12-08T21:52:26.341Z,76.08
2022-12-08T21:54:53.949Z,76.18
2022-12-08T21:57:21.877Z,76.14
2022-12-08T21:59:49.727Z,76.15
2022-12-08T22:02:22.233Z,76.13
2022-12-08T22:04:50.933Z,76.17
2022-12-08T22:07:20.650Z,76.08
2022-12-08T22:09:48.444Z,76.18
2022-12-08T22:12:16.228Z,76.18
2022-12-08T22:14:44.092Z,76.24
2022-12-08T22:17:11.849Z,76.33
2022-12-08T22:19:39.484Z,76.20
2022-12-08T22:22:07.176Z,76.13
2022-12-08T22:24:34.871Z,76.15
2022-12-08T22:27:02.726Z,76.23
2022-12-08T22:29:30.414Z,76.33
2022-12-08T22:31:58.229Z,76.36
2022-12-08T22:34:25.893Z,76.45
2022-12-08T22:36:53.472Z,76.62
2022-12-08T22:39:21.133Z,76.43
2022-12-08T22:41:49.101Z,76.53
2022-12-08T22:44:16.929Z,76.79
2022-12-08T22:46:44.985Z,76.96
2022-12-08T22:49:12.715Z,77.09
2022-12-08T22:51:40.383Z,77.06
2022-12-08T22:54:10.644Z,77.09
2022-12-08T22:56:38.533Z,76.70
2022-12-08T22:59:06.290Z,76.81
2022-12-08T23:01:34.619Z,76.97
2022-12-08T23:04:20.208Z,76.97
2022-12-08T23:06:48.246Z,76.97
2022-12-08T23:09:16.020Z,76.98
2022-12-08T23:11:43.718Z,77.06
2022-12-08T23:14:11.300Z,77.06
2022-12-08T23:16:39.055Z,77.03
2022-12-08T23:19:06.773Z,76.95
2022-12-08T23:21:34.391Z,76.92
2022-12-08T23:24:02.681Z,77.18
2022-12-08T23:26:32.091Z,77.19
2022-12-08T23:29:00.276Z,77.19
2022-12-08T23:31:28.165Z,77.43
2022-12-08T23:33:56.056Z,77.46
2022-12-08T23:36:24.462Z,77.36
2022-12-08T23:38:53.297Z,77.39
2022-12-08T23:41:21.407Z,77.18
2022-12-08T23:43:51.306Z,77.11
2022-12-08T23:46:21.124Z,77.12
2022-12-08T23:48:50.364Z,76.97
2022-12-08T23:51:18.703Z,77.01
2022-12-08T23:53:46.421Z,77.02
2022-12-08T23:56:16.883Z,76.92
2022-12-08T23:58:45.984Z,76.98
